createdAt,value
2022-10-28T00:00:52.267Z,17.90
2022-10-28T00:03:19.003Z,17.93
2022-10-28T00:05:45.971Z,17.91
2022-10-28T00:08:12.381Z,17.87
2022-10-28T00:10:38.745Z,17.82
2022-10-28T00:13:05.148Z,17.89
2022-10-28T00:15:34.423Z,17.92
2022-10-28T00:18:00.815Z,17.97
2022-10-28T00:20:27.240Z,18.01
2022-10-28T00:22:53.601Z,17.93
2022-10-28T00:25:24.849Z,17.97
2022-10-28T00:27:52.796Z,17.90
2022-10-28T00:30:19.779Z,17.95
2022-10-28T00:32:46.157Z,17.89
2022-10-28T00:35:12.514Z,17.88
2022-10-28T00:37:38.870Z,17.72
2022-10-28T00:40:05.587Z,17.67
2022-10-28T00:42:31.942Z,17.65
2022-10-28T00:45:00.148Z,17.63
2022-10-28T00:47:55.241Z,17.77
2022-10-28T00:50:47.560Z,17.89
2022-10-28T00:53:17.146Z,17.98
2022-10-28T00:55:44.500Z,17.98
2022-10-28T00:58:11.654Z,18.06
2022-10-28T01:00:38.045Z,18.10
2022-10-28T01:03:04.564Z,18.19
2022-10-28T01:05:32.604Z,18.20
2022-10-28T01:08:01.604Z,18.29
2022-10-28T01:10:58.425Z,18.30
2022-10-28T01:13:34.622Z,18.21
2022-10-28T01:16:06.936Z,18.25
2022-10-28T01:19:00.921Z,18.40
2022-10-28T01:21:43.637Z,18.39
2022-10-28T01:24:09.976Z,18.55
2022-10-28T01:27:01.094Z,18.52
2022-10-28T01:29:48.480Z,18.56
2022-10-28T01:32:26.549Z,18.64
2022-10-28T01:35:01.450Z,18.58
2022-10-28T01:37:34.325Z,18.69
2022-10-28T01:40:09.701Z,18.83
2022-10-28T01:42:54.275Z,18.92
2022-10-28T01:45:29.001Z,19.01
2022-10-28T01:47:58.899Z,19.10
2022-10-28T01:50:29.605Z,19.12
2022-10-28T01:53:00.361Z,19.11
2022-10-28T01:55:30.188Z,19.06
2022-10-28T01:57:59.167Z,19.02
2022-10-28T02:00:26.426Z,18.85
2022-10-28T02:02:53.326Z,18.79
2022-10-28T02:05:49.008Z,18.56
2022-10-28T02:08:18.473Z,18.46
2022-10-28T02:11:10.335Z,18.59
2022-10-28T02:14:21.110Z,18.57
2022-10-28T02:16:56.212Z,18.59
2022-10-28T02:19:36.110Z,18.56
2022-10-28T02:22:16.240Z,18.57
2022-10-28T02:24:51.659Z,18.49
2022-10-28T02:27:30.957Z,18.53
2022-10-28T02:30:03.912Z,18.53
2022-10-28T02:32:32.275Z,18.48
2022-10-28T02:35:01.053Z,18.42
2022-10-28T02:37:30.543Z,18.27
2022-10-28T02:40:00.094Z,18.13
2022-10-28T02:42:29.508Z,18.11
2022-10-28T02:45:09.601Z,18.11
2022-10-28T02:47:37.741Z,18.02
2022-10-28T02:50:07.901Z,18.06
2022-10-28T02:52:34.720Z,18.02
2022-10-28T02:55:04.639Z,18.06
2022-10-28T02:57:35.097Z,18.03
2022-10-28T03:00:06.485Z,18.06
2022-10-28T03:02:33.004Z,18.05
2022-10-28T03:04:59.381Z,17.96
2022-10-28T03:07:25.807Z,17.87
2022-10-28T03:09:52.191Z,17.86
2022-10-28T03:12:18.553Z,17.78
2022-10-28T03:14:44.913Z,17.67
2022-10-28T03:17:11.314Z,17.55
2022-10-28T03:19:37.680Z,17.58
2022-10-28T03:22:04.102Z,17.50
2022-10-28T03:24:30.468Z,17.29
2022-10-28T03:26:57.024Z,17.27
2022-10-28T03:29:23.440Z,17.12
2022-10-28T03:31:49.816Z,16.98
2022-10-28T03:34:16.232Z,16.97
2022-10-28T03:36:42.723Z,16.92
2022-10-28T03:39:09.093Z,16.91
2022-10-28T03:41:35.502Z,16.88
2022-10-28T03:44:01.889Z,16.90
2022-10-28T03:46:29.156Z,16.97
2022-10-28T03:48:57.607Z,17.01
2022-10-28T03:51:24.102Z,16.98
2022-10-28T03:53:50.504Z,16.90
2022-10-28T03:56:16.900Z,16.92
2022-10-28T03:58:43.322Z,16.94
2022-10-28T04:01:09.867Z,16.94
2022-10-28T04:03:36.345Z,16.85
2022-10-28T04:06:02.718Z,16.92
2022-10-28T04:08:29.129Z,16.65
2022-10-28T04:10:55.514Z,16.50
2022-10-28T04:13:21.942Z,16.54
2022-10-28T04:15:48.317Z,16.59
2022-10-28T04:18:14.715Z,16.51
2022-10-28T04:20:41.083Z,16.45
2022-10-28T04:23:08.268Z,16.43
2022-10-28T04:25:35.885Z,16.46
2022-10-28T04:28:02.252Z,16.48
2022-10-28T04:30:28.624Z,16.48
2022-10-28T04:32:55.031Z,16.50
2022-10-28T04:35:21.461Z,16.31
2022-10-28T04:37:47.990Z,16.23
2022-10-28T04:40:14.372Z,16.22
2022-10-28T04:42:40.787Z,16.42
2022-10-28T04:45:08.161Z,16.56
2022-10-28T04:47:34.757Z,16.58
2022-10-28T04:50:01.299Z,16.53
2022-10-28T04:52:27.701Z,16.53
2022-10-28T04:54:54.063Z,16.33
2022-10-28T04:57:20.434Z,16.31
2022-10-28T04:59:46.791Z,16.27
2022-10-28T05:02:13.434Z,16.20
2022-10-28T05:04:39.945Z,15.89
2022-10-28T05:07:06.872Z,15.75
2022-10-28T05:09:33.256Z,15.54
2022-10-28T05:11:59.610Z,15.77
2022-10-28T05:14:26.124Z,15.95
2022-10-28T05:16:52.480Z,15.86
2022-10-28T05:19:18.912Z,16.08
2022-10-28T05:21:45.314Z,16.20
2022-10-28T05:24:11.721Z,16.06
2022-10-28T05:26:38.071Z,16.11
2022-10-28T05:29:04.440Z,16.13
2022-10-28T05:31:30.800Z,16.05
2022-10-28T05:33:57.163Z,16.13
2022-10-28T05:36:23.517Z,16.24
2022-10-28T05:38:49.921Z,16.17
2022-10-28T05:41:16.320Z,16.04
2022-10-28T05:43:42.692Z,15.85
2022-10-28T05:46:09.425Z,15.82
2022-10-28T05:48:35.788Z,15.74
2022-10-28T05:51:02.141Z,15.60
2022-10-28T05:53:28.517Z,15.67
2022-10-28T05:55:54.930Z,15.63
2022-10-28T05:58:21.302Z,15.54
2022-10-28T06:00:47.652Z,15.64
2022-10-28T06:03:14.067Z,15.55
2022-10-28T06:05:44.490Z,15.64
2022-10-28T06:08:12.349Z,15.62
2022-10-28T06:10:39.369Z,15.68
2022-10-28T06:13:04.198Z,15.71
2022-10-28T06:15:30.791Z,15.77
2022-10-28T06:17:57.174Z,15.66
2022-10-28T06:20:23.572Z,15.70
2022-10-28T06:22:54.135Z,15.80
2022-10-28T06:25:21.644Z,16.02
2022-10-28T06:27:55.226Z,16.16
2022-10-28T06:30:22.703Z,16.32
2022-10-28T06:32:49.121Z,16.40
2022-10-28T06:35:16.024Z,16.47
2022-10-28T06:37:42.537Z,16.51
2022-10-28T06:40:09.150Z,16.49
2022-10-28T06:42:35.509Z,16.40
2022-10-28T06:45:02.236Z,16.47
2022-10-28T06:47:30.104Z,16.65
2022-10-28T06:49:56.590Z,16.96
2022-10-28T06:52:22.973Z,17.12
2022-10-28T06:54:49.342Z,17.30
2022-10-28T06:57:15.691Z,17.43
2022-10-28T06:59:42.136Z,17.35
2022-10-28T07:02:11.593Z,17.39
2022-10-28T07:04:38.297Z,17.36
2022-10-28T07:07:04.652Z,17.32
2022-10-28T07:09:31.071Z,17.38
2022-10-28T07:12:02.260Z,17.20
2022-10-28T07:14:31.955Z,17.20
2022-10-28T07:16:58.320Z,17.13
2022-10-28T07:19:24.690Z,17.13
2022-10-28T07:21:51.298Z,17.14
2022-10-28T07:24:17.845Z,17.34
2022-10-28T07:26:44.271Z,17.32
2022-10-28T07:29:10.673Z,17.37
2022-10-28T07:31:37.037Z,17.45
2022-10-28T07:34:03.485Z,17.39
2022-10-28T07:36:29.881Z,17.40
2022-10-28T07:38:56.311Z,17.30
2022-10-28T07:41:23.272Z,17.34
2022-10-28T07:43:50.202Z,17.22
2022-10-28T07:46:17.648Z,17.45
2022-10-28T07:48:44.074Z,17.59
2022-10-28T07:51:12.348Z,17.84
2022-10-28T07:53:39.093Z,18.13
2022-10-28T07:56:13.432Z,18.29
2022-10-28T07:58:40.805Z,18.51
2022-10-28T08:01:08.550Z,18.67
2022-10-28T08:03:39.087Z,18.77
2022-10-28T08:06:11.620Z,18.91
2022-10-28T08:08:38.610Z,19.13
2022-10-28T08:11:09.536Z,19.15
2022-10-28T08:13:39.440Z,19.25
2022-10-28T08:16:08.092Z,19.37
2022-10-28T08:18:35.612Z,19.50
2022-10-28T08:21:02.985Z,19.57
2022-10-28T08:23:29.926Z,19.62
2022-10-28T08:25:56.491Z,19.72
2022-10-28T08:28:23.928Z,19.74
2022-10-28T08:31:04.308Z,19.58
2022-10-28T08:33:34.982Z,19.59
2022-10-28T08:36:01.353Z,19.57
2022-10-28T08:38:27.791Z,19.53
2022-10-28T08:41:15.741Z,19.65
2022-10-28T08:43:57.460Z,19.61
2022-10-28T08:47:00.542Z,19.65
2022-10-28T08:49:27.382Z,19.60
2022-10-28T08:52:01.173Z,19.69
2022-10-28T08:54:32.780Z,19.77
2022-10-28T08:57:01.386Z,19.81
2022-10-28T08:59:37.089Z,19.81
2022-10-28T09:02:11.854Z,19.78
2022-10-28T09:04:44.773Z,19.77
2022-10-28T09:07:18.025Z,19.89
2022-10-28T09:09:45.627Z,20.14
2022-10-28T09:12:34.908Z,20.25
2022-10-28T09:15:32.184Z,20.38
2022-10-28T09:18:20.149Z,20.55
2022-10-28T09:20:56.594Z,20.66
2022-10-28T09:23:56.059Z,20.85
2022-10-28T09:26:25.124Z,20.96
2022-10-28T09:29:04.704Z,21.02
2022-10-28T09:31:41.053Z,21.17
2022-10-28T09:34:17.516Z,21.35
2022-10-28T09:36:49.703Z,21.43
2022-10-28T09:39:26.835Z,21.45
2022-10-28T09:41:54.973Z,21.77
2022-10-28T09:44:38.624Z,21.70
2022-10-28T09:47:14.285Z,21.96
2022-10-28T09:49:40.974Z,22.11
2022-10-28T09:52:07.242Z,22.41
2022-10-28T09:54:40.891Z,22.72
2022-10-28T09:57:07.420Z,22.77
2022-10-28T09:59:34.340Z,22.98
2022-10-28T10:02:00.999Z,23.17
2022-10-28T10:04:31.109Z,23.45
2022-10-28T10:07:11.069Z,23.64
2022-10-28T10:09:38.634Z,23.78
2022-10-28T10:12:07.384Z,23.93
2022-10-28T10:14:39.139Z,24.13
2022-10-28T10:17:10.318Z,24.21
2022-10-28T10:20:04.690Z,24.04
2022-10-28T10:22:42.806Z,23.86
2022-10-28T10:25:29.861Z,24.09
2022-10-28T10:28:01.856Z,24.06
2022-10-28T10:30:45.304Z,23.94
2022-10-28T10:33:33.992Z,23.64
2022-10-28T10:36:09.533Z,23.24
2022-10-28T10:38:36.345Z,23.24
2022-10-28T10:41:03.166Z,23.47
2022-10-28T10:43:31.761Z,23.69
2022-10-28T10:46:16.288Z,23.98
2022-10-28T10:48:42.683Z,24.48
2022-10-28T10:51:18.325Z,24.64
2022-10-28T10:53:48.586Z,24.65
2022-10-28T10:56:23.839Z,24.71
2022-10-28T10:58:52.468Z,24.45
2022-10-28T11:01:22.230Z,24.31
2022-10-28T11:03:55.088Z,24.16
2022-10-28T11:06:24.888Z,24.28
2022-10-28T11:08:58.949Z,24.10
2022-10-28T11:11:36.843Z,24.12
2022-10-28T11:14:08.297Z,24.18
2022-10-28T11:17:06.413Z,24.23
2022-10-28T11:19:37.710Z,24.22
2022-10-28T11:22:25.941Z,23.99
2022-10-28T11:25:32.487Z,23.80
2022-10-28T11:28:24.982Z,23.85
2022-10-28T11:30:59.009Z,23.62
2022-10-28T11:33:40.030Z,23.70
2022-10-28T11:36:35.526Z,23.76
2022-10-28T11:39:18.935Z,23.96
2022-10-28T11:42:15.179Z,23.72
2022-10-28T11:44:59.211Z,23.66
2022-10-28T11:47:41.138Z,23.75
2022-10-28T11:50:22.313Z,23.87
2022-10-28T11:53:00.839Z,23.97
2022-10-28T11:55:39.746Z,23.89
2022-10-28T11:58:20.895Z,24.05
2022-10-28T12:00:54.149Z,23.96
2022-10-28T12:03:47.295Z,23.85
2022-10-28T12:06:20.012Z,23.93
2022-10-28T12:08:52.392Z,23.87
2022-10-28T12:11:32.321Z,23.92
2022-10-28T12:14:32.856Z,23.86
2022-10-28T12:17:06.411Z,23.93
2022-10-28T12:19:38.245Z,23.76
2022-10-28T12:22:10.599Z,23.73
2022-10-28T12:24:37.786Z,23.82
2022-10-28T12:27:15.437Z,24.06
2022-10-28T12:29:48.093Z,24.32
2022-10-28T12:32:24.956Z,24.36
2022-10-28T12:35:04.254Z,24.43
2022-10-28T12:37:53.752Z,24.62
2022-10-28T12:40:23.039Z,24.58
2022-10-28T12:42:57.572Z,24.85
2022-10-28T12:45:24.938Z,24.87
2022-10-28T12:47:57.942Z,24.97
2022-10-28T12:50:44.750Z,24.98
2022-10-28T12:53:17.097Z,25.10
2022-10-28T12:55:55.667Z,24.89
2022-10-28T12:58:38.665Z,24.86
2022-10-28T13:01:17.293Z,24.90
2022-10-28T13:03:43.825Z,25.05
2022-10-28T13:06:15.882Z,25.19
2022-10-28T13:08:51.329Z,25.13
2022-10-28T13:11:20.751Z,25.12
2022-10-28T13:14:33.480Z,24.84
2022-10-28T13:17:14.461Z,24.72
2022-10-28T13:20:04.592Z,24.82
2022-10-28T13:22:56.494Z,24.67
2022-10-28T13:25:26.083Z,24.92
2022-10-28T13:27:57.444Z,24.87
2022-10-28T13:30:24.125Z,24.88
2022-10-28T13:33:08.883Z,25.20
2022-10-28T13:35:35.616Z,24.85
2022-10-28T13:38:02.739Z,24.65
2022-10-28T13:40:32.152Z,24.67
2022-10-28T13:42:59.980Z,24.57
2022-10-28T13:45:55.103Z,24.62
2022-10-28T13:48:42.727Z,24.55
2022-10-28T13:51:08.977Z,24.55
2022-10-28T13:53:47.658Z,24.56
2022-10-28T13:56:19.663Z,24.46
2022-10-28T13:58:51.675Z,24.54
2022-10-28T14:01:36.786Z,24.60
2022-10-28T14:04:04.582Z,24.72
2022-10-28T14:06:32.391Z,24.43
2022-10-28T14:08:58.993Z,24.36
2022-10-28T14:11:29.066Z,24.60
2022-10-28T14:13:58.518Z,24.66
2022-10-28T14:16:37.563Z,24.61
2022-10-28T14:19:07.159Z,24.51
2022-10-28T14:21:53.498Z,24.64
2022-10-28T14:24:57.316Z,24.30
2022-10-28T14:27:28.687Z,24.38
2022-10-28T14:29:54.974Z,24.27
2022-10-28T14:32:50.492Z,24.12
2022-10-28T14:35:25.487Z,24.01
2022-10-28T14:38:04.143Z,24.11
2022-10-28T14:40:50.727Z,24.13
2022-10-28T14:43:51.766Z,24.03
2022-10-28T14:46:43.967Z,24.08
2022-10-28T14:49:27.512Z,24.03
2022-10-28T14:51:54.050Z,23.80
2022-10-28T14:54:38.226Z,23.91
2022-10-28T14:57:06.231Z,23.76
2022-10-28T14:59:37.820Z,23.62
2022-10-28T15:02:15.089Z,23.51
2022-10-28T15:04:43.457Z,23.35
2022-10-28T15:07:18.384Z,23.22
2022-10-28T15:09:47.346Z,23.32
2022-10-28T15:12:16.661Z,23.30
2022-10-28T15:14:46.004Z,23.29
2022-10-28T15:17:44.905Z,23.40
2022-10-28T15:20:22.276Z,23.24
2022-10-28T15:22:49.089Z,23.30
2022-10-28T15:25:17.915Z,23.22
2022-10-28T15:27:45.296Z,23.13
2022-10-28T15:30:16.174Z,23.09
2022-10-28T15:32:42.545Z,23.07
2022-10-28T15:35:44.883Z,23.08
2022-10-28T15:38:29.512Z,22.91
2022-10-28T15:40:55.963Z,22.88
2022-10-28T15:43:25.449Z,22.70
2022-10-28T15:45:52.161Z,22.69
2022-10-28T15:48:27.640Z,22.63
2022-10-28T15:51:14.595Z,22.51
2022-10-28T15:53:42.343Z,22.45
2022-10-28T15:56:17.852Z,22.41
2022-10-28T15:58:46.368Z,22.21
2022-10-28T16:01:38.062Z,22.04
2022-10-28T16:04:33.633Z,22.27
2022-10-28T16:07:07.052Z,22.27
2022-10-28T16:09:42.281Z,22.24
2022-10-28T16:12:20.153Z,22.15
2022-10-28T16:14:56.038Z,22.04
2022-10-28T16:17:26.644Z,21.95
2022-10-28T16:19:55.558Z,21.85
2022-10-28T16:22:23.462Z,21.89
2022-10-28T16:24:50.210Z,21.74
2022-10-28T16:27:21.634Z,21.62
2022-10-28T16:29:48.515Z,21.64
2022-10-28T16:32:16.488Z,21.56
2022-10-28T16:34:43.128Z,21.57
2022-10-28T16:37:30.725Z,21.51
2022-10-28T16:40:00.105Z,21.42
2022-10-28T16:42:26.663Z,21.45
2022-10-28T16:44:53.082Z,21.49
2022-10-28T16:47:21.636Z,21.43
2022-10-28T16:49:54.511Z,21.34
2022-10-28T16:52:29.007Z,21.25
2022-10-28T16:54:56.174Z,21.14
2022-10-28T16:59:50.569Z,20.90
2022-10-28T17:02:22.112Z,20.99
2022-10-28T17:04:48.579Z,20.95
2022-10-28T17:07:16.337Z,20.91
2022-10-28T17:09:43.123Z,20.84
2022-10-28T17:12:14.407Z,20.77
2022-10-28T17:14:41.035Z,20.71
2022-10-28T17:17:07.629Z,20.70
2022-10-28T17:19:34.047Z,20.71
2022-10-28T17:22:00.409Z,20.62
2022-10-28T17:24:26.810Z,20.59
2022-10-28T17:26:53.244Z,20.53
2022-10-28T17:29:19.611Z,20.42
2022-10-28T17:31:45.977Z,20.36
2022-10-28T17:34:12.337Z,20.42
2022-10-28T17:36:38.710Z,20.39
2022-10-28T17:39:05.238Z,20.28
2022-10-28T17:41:31.678Z,20.16
2022-10-28T17:43:58.212Z,20.22
2022-10-28T17:46:24.579Z,20.11
2022-10-28T17:48:50.987Z,20.10
2022-10-28T17:51:17.550Z,20.01
2022-10-28T17:53:43.913Z,20.01
2022-10-28T17:56:10.344Z,20.06
2022-10-28T17:58:36.734Z,20.06
2022-10-28T18:01:07.672Z,20.05
2022-10-28T18:03:38.938Z,20.14
2022-10-28T18:06:07.649Z,20.08
2022-10-28T18:08:41.783Z,20.06
2022-10-28T18:11:10.254Z,20.01
2022-10-28T18:13:38.729Z,20.04
2022-10-28T18:16:08.968Z,19.97
2022-10-28T18:18:41.007Z,19.92
2022-10-28T18:21:10.021Z,20.00
2022-10-28T18:23:36.449Z,19.90
2022-10-28T18:26:14.889Z,19.80
2022-10-28T18:28:42.878Z,19.79
2022-10-28T18:31:14.051Z,19.72
2022-10-28T18:33:42.916Z,19.70
2022-10-28T18:36:18.441Z,19.80
2022-10-28T18:38:44.936Z,19.67
2022-10-28T18:41:16.677Z,19.57
2022-10-28T18:43:43.058Z,19.55
2022-10-28T18:46:09.681Z,19.51
2022-10-28T18:48:36.586Z,19.53
2022-10-28T18:51:09.400Z,19.50
2022-10-28T18:53:37.160Z,19.50
2022-10-28T18:56:07.480Z,19.48
2022-10-28T18:58:34.160Z,19.50
2022-10-28T19:01:12.722Z,19.45
2022-10-28T19:03:39.689Z,19.42
2022-10-28T19:06:08.523Z,19.27
2022-10-28T19:08:34.930Z,19.15
2022-10-28T19:11:01.927Z,19.30
2022-10-28T19:13:28.362Z,19.26
2022-10-28T19:15:54.795Z,19.17
2022-10-28T19:18:21.816Z,19.16
2022-10-28T19:20:48.272Z,19.16
2022-10-28T19:23:14.690Z,19.25
2022-10-28T19:25:41.148Z,19.22
2022-10-28T19:28:07.556Z,19.06
2022-10-28T19:30:34.713Z,19.07
2022-10-28T19:33:01.111Z,18.97
2022-10-28T19:35:27.475Z,18.94
2022-10-28T19:37:53.867Z,18.99
2022-10-28T19:40:20.838Z,18.81
2022-10-28T19:42:47.253Z,18.74
2022-10-28T19:45:13.726Z,18.69
2022-10-28T19:47:40.094Z,18.63
2022-10-28T19:50:07.016Z,18.61
2022-10-28T19:52:33.409Z,18.65
2022-10-28T19:54:59.777Z,18.67
2022-10-28T19:57:26.182Z,18.59
2022-10-28T19:59:52.537Z,18.56
2022-10-28T20:02:19.048Z,18.54
2022-10-28T20:04:45.581Z,18.53
2022-10-28T20:07:11.952Z,18.55
2022-10-28T20:09:38.325Z,18.61
2022-10-28T20:12:04.896Z,18.71
2022-10-28T20:14:32.531Z,18.81
2022-10-28T20:17:05.507Z,18.75
2022-10-28T20:19:33.104Z,18.84
2022-10-28T20:21:59.466Z,18.86
2022-10-28T20:24:26.346Z,18.96
2022-10-28T20:26:52.715Z,18.88
2022-10-28T20:29:19.105Z,18.96
2022-10-28T20:31:45.589Z,18.95
2022-10-28T20:34:11.952Z,18.94
2022-10-28T20:36:40.428Z,18.86
2022-10-28T20:39:13.990Z,18.86
2022-10-28T20:41:41.481Z,18.88
2022-10-28T20:44:08.121Z,18.81
2022-10-28T20:46:34.669Z,18.74
2022-10-28T20:49:01.238Z,18.51
2022-10-28T20:51:29.472Z,18.51
2022-10-28T20:53:55.970Z,18.60
2022-10-28T20:56:24.195Z,18.58
2022-10-28T20:58:50.749Z,18.54
2022-10-28T21:01:25.888Z,18.50
2022-10-28T21:03:57.141Z,18.38
2022-10-28T21:06:24.019Z,18.07
2022-10-28T21:08:50.756Z,18.16
2022-10-28T21:11:17.547Z,18.29
2022-10-28T21:13:46.085Z,18.42
2022-10-28T21:16:13.292Z,18.54
2022-10-28T21:18:40.071Z,18.58
2022-10-28T21:21:06.927Z,18.57
2022-10-28T21:23:33.373Z,18.49
2022-10-28T21:26:04.535Z,18.43
2022-10-28T21:28:32.053Z,18.39
2022-10-28T21:31:06.566Z,18.37
2022-10-28T21:33:34.315Z,18.43
2022-10-28T21:36:03.522Z,18.45
2022-10-28T21:38:30.235Z,18.42
2022-10-28T21:41:12.797Z,18.39
2022-10-28T21:43:42.382Z,18.22
2022-10-28T21:46:08.956Z,18.16
2022-10-28T21:48:36.252Z,18.02
2022-10-28T21:51:08.506Z,17.92
2022-10-28T21:53:38.622Z,17.98
2022-10-28T21:56:08.336Z,17.82
2022-10-28T21:58:36.414Z,17.80
2022-10-28T22:01:27.008Z,17.74
2022-10-28T22:03:55.160Z,17.68
2022-10-28T22:06:21.802Z,17.63
2022-10-28T22:08:48.182Z,17.63
2022-10-28T22:11:19.694Z,17.63
2022-10-28T22:13:47.479Z,17.66
2022-10-28T22:16:15.880Z,17.58
2022-10-28T22:18:42.992Z,17.51
2022-10-28T22:21:11.783Z,17.56
2022-10-28T22:23:38.276Z,17.57
2022-10-28T22:26:06.341Z,17.60
2022-10-28T22:28:32.819Z,17.68
2022-10-28T22:31:03.667Z,17.70
2022-10-28T22:33:30.313Z,17.69
2022-10-28T22:36:01.276Z,17.68
2022-10-28T22:38:28.158Z,17.56
2022-10-28T22:41:13.734Z,17.54
2022-10-28T22:43:40.987Z,17.60
2022-10-28T22:46:08.054Z,17.57
2022-10-28T22:48:34.503Z,17.61
2022-10-28T22:51:00.877Z,17.71
2022-10-28T22:53:27.421Z,17.67
2022-10-28T22:55:54.254Z,17.82
2022-10-28T22:58:21.325Z,17.77
2022-10-28T23:00:48.129Z,17.69
2022-10-28T23:03:14.568Z,17.72
2022-10-28T23:05:41.304Z,17.70
2022-10-28T23:08:07.940Z,17.73
2022-10-28T23:10:34.338Z,17.72
2022-10-28T23:13:02.107Z,17.68
2022-10-28T23:15:29.160Z,17.71
2022-10-28T23:17:56.313Z,17.76
2022-10-28T23:20:24.597Z,17.74
2022-10-28T23:22:51.135Z,17.70
2022-10-28T23:25:17.496Z,17.68
2022-10-28T23:27:44.308Z,17.69
2022-10-28T23:30:12.771Z,17.63
2022-10-28T23:32:39.783Z,17.72
2022-10-28T23:35:07.116Z,17.74
2022-10-28T23:37:33.730Z,17.66
2022-10-28T23:40:00.150Z,17.66
2022-10-28T23:42:26.578Z,17.48
2022-10-28T23:44:52.936Z,17.42
2022-10-28T23:47:19.317Z,17.24
2022-10-28T23:49:45.726Z,17.12
2022-10-28T23:52:12.109Z,17.11
2022-10-28T23:54:38.469Z,17.06
2022-10-28T23:57:04.910Z,17.06
2022-10-28T23:59:31.301Z,17.20
